Time;durP1;ratioP1;P1;durP2;ratioP2;P2;SDS_P1;SDS_P2;PMS_P1;PMS_P2;Temp;Humidity;BMP_temperature;BMP_pressure;BME280_temperature;BME280_humidity;BME280_pressure;Samples;Min_cycle;Max_cycle;Signal;HPM_P1;HPM_P2
2022/01/02 00:00:08;;;;;;;4.50;2.90;;;;;;;4.97;71.52;100886.69;107271;1270;96385;-72
2022/01/02 00:03:04;;;;;;;3.30;2.70;;;;;;;4.95;71.76;100886.34;107806;1270;94821;-72
2022/01/02 00:05:40;;;;;;;6.20;3.00;;;;;;;4.94;71.85;100884.10;107649;1268;137365;-71
2022/01/02 00:08:13;;;;;;;3.30;2.60;;;;;;;4.93;71.78;100882.20;107829;1270;108833;-72
2022/01/02 00:10:49;;;;;;;5.70;2.50;;;;;;;4.93;71.87;100879.96;106218;1270;138664;-71
2022/01/02 00:13:28;;;;;;;4.10;2.60;;;;;;;4.95;71.94;100877.04;106196;1270;96464;-71
2022/01/02 00:16:06;;;;;;;5.70;2.80;;;;;;;4.95;71.96;100877.03;105976;1270;138665;-71
2022/01/02 00:18:47;;;;;;;6.80;3.20;;;;;;;4.95;71.83;100882.55;106151;1270;112292;-73
2022/01/02 00:21:21;;;;;;;3.90;3.10;;;;;;;4.92;71.54;100885.30;106122;1270;108727;-72
2022/01/02 00:23:59;;;;;;;5.60;3.20;;;;;;;4.89;71.60;100891.86;105979;1270;138361;-72
2022/01/02 00:26:38;;;;;;;5.00;3.60;;;;;;;4.84;71.67;100887.02;106273;1270;96509;-71
2022/01/02 00:29:11;;;;;;;6.00;3.70;;;;;;;4.72;71.54;100880.11;106183;1271;137871;-70
2022/01/02 00:31:43;;;;;;;6.40;4.30;;;;;;;4.61;71.84;100877.48;106289;1271;111142;-70
2022/01/02 00:34:16;;;;;;;5.40;3.70;;;;;;;4.51;72.23;100879.20;106462;1271;139013;-71
2022/01/02 00:36:47;;;;;;;5.10;3.70;;;;;;;4.45;72.40;100884.86;107767;1270;108883;-71
2022/01/02 00:39:19;;;;;;;6.40;4.20;;;;;;;4.38;72.69;100886.40;106833;1271;96549;-70
2022/01/02 00:41:57;;;;;;;6.00;4.10;;;;;;;4.31;73.01;100883.45;106001;1271;137808;-70
2022/01/02 00:44:39;;;;;;;7.90;4.80;;;;;;;4.28;73.14;100877.73;107621;1271;111981;-71
2022/01/02 00:47:19;;;;;;;7.30;4.00;;;;;;;4.26;73.15;100875.49;106911;1271;137770;-70
2022/01/02 00:50:03;;;;;;;5.70;3.70;;;;;;;4.23;73.43;100872.91;107727;1270;108752;-71
2022/01/02 00:52:39;;;;;;;8.20;4.10;;;;;;;4.20;73.54;100870.15;107719;1271;138363;-71
2022/01/02 00:55:13;;;;;;;5.60;4.00;;;;;;;4.16;73.48;100870.48;106353;1271;96474;-70
2022/01/02 00:57:56;;;;;;;10.40;4.10;;;;;;;4.13;73.35;100875.46;106103;1271;137915;-70
2022/01/02 01:00:31;;;;;;;7.20;4.40;;;;;;;4.10;73.66;100875.61;106142;1271;109395;-71
2022/01/02 01:03:10;;;;;;;7.00;4.70;;;;;;;4.06;73.56;100866.64;106052;1271;108548;-71
2022/01/02 01:05:45;;;;;;;7.90;5.00;;;;;;;4.02;73.71;100864.40;106025;1271;138941;-70
2022/01/02 01:08:17;;;;;;;7.80;4.90;;;;;;;3.99;73.97;100859.40;106226;1271;96518;-70
2022/01/02 01:10:53;;;;;;;9.20;5.00;;;;;;;3.94;73.95;100858.00;106359;1271;137919;-70
2022/01/02 01:13:25;;;;;;;8.00;4.70;;;;;;;3.89;74.07;100854.02;106258;1271;108881;-70
2022/01/02 01:15:58;;;;;;;7.50;5.00;;;;;;;3.86;74.33;100851.93;106022;1271;139409;-70
2022/01/02 01:18:30;;;;;;;7.60;4.70;;;;;;;3.83;74.31;100851.41;107203;1271;96400;-71
2022/01/02 01:21:02;;;;;;;9.50;5.00;;;;;;;3.81;74.50;100853.64;106955;1271;95210;-70
2022/01/02 01:23:34;;;;;;;9.40;5.50;;;;;;;3.78;74.54;100848.98;107029;1271;137716;-71
2022/01/02 01:26:09;;;;;;;8.80;5.10;;;;;;;3.76;74.63;100846.38;106093;1271;109128;-70
2022/01/02 01:28:41;;;;;;;6.70;4.70;;;;;;;3.75;74.79;100843.27;107224;1271;137850;-71
2022/01/02 01:31:13;;;;;;;7.00;4.80;;;;;;;3.72;74.85;100835.68;107657;1271;94726;-71
2022/01/02 01:33:45;;;;;;;7.00;4.20;;;;;;;3.69;74.93;100840.32;107682;1271;141201;-70
2022/01/02 01:36:17;;;;;;;7.10;4.70;;;;;;;3.64;75.05;100837.21;107649;1271;111037;-71
2022/01/02 01:38:50;;;;;;;7.30;4.10;;;;;;;3.61;75.15;100834.27;107733;1271;107896;-71
2022/01/02 01:41:28;;;;;;;6.70;4.00;;;;;;;3.58;75.45;100824.10;107657;1270;138396;-71
2022/01/02 01:44:21;;;;;;;6.90;4.10;;;;;;;3.55;75.64;100813.75;107723;1271;94688;-71
2022/01/02 01:46:55;;;;;;;7.00;3.90;;;;;;;3.52;76.05;100803.26;107661;1270;137592;-71
2022/01/02 01:49:30;;;;;;;5.40;3.90;;;;;;;3.48;76.24;100798.95;107588;1271;111821;-70
2022/01/02 01:52:03;;;;;;;6.00;4.00;;;;;;;3.44;76.32;100806.33;107547;1271;138157;-71
2022/01/02 01:58:41;;;;;;;9.00;4.00;;;;;;;3.37;76.95;100797.84;106447;1271;138084;-72
2022/01/02 02:01:13;;;;;;;8.90;4.40;;;;;;;3.34;77.48;100800.41;106123;1271;96488;-71
2022/01/02 02:03:51;;;;;;;9.80;4.50;;;;;;;3.32;77.79;100789.57;106117;1271;137838;-71
2022/01/02 02:06:26;;;;;;;6.20;4.20;;;;;;;3.31;77.80;100786.98;106964;1271;108908;-71
2022/01/02 02:08:59;;;;;;;8.60;5.00;;;;;;;3.29;78.21;100791.27;107613;1271;108731;-71
2022/01/02 02:11:32;;;;;;;7.00;4.50;;;;;;;3.27;78.35;100785.25;107547;1271;138623;-71
2022/01/02 02:14:06;;;;;;;7.70;4.40;;;;;;;3.28;78.41;100779.58;107616;1271;95005;-71
2022/01/02 02:16:39;;;;;;;9.90;4.70;;;;;;;3.28;78.62;100779.59;107543;1271;138441;-72
2022/01/02 02:19:11;;;;;;;7.00;4.70;;;;;;;3.28;78.88;100776.14;107741;1271;109613;-72
2022/01/02 02:21:44;;;;;;;7.20;4.60;;;;;;;3.29;78.83;100772.71;107518;1271;138117;-71
2022/01/02 02:24:16;;;;;;;12.30;4.70;;;;;;;3.30;78.63;100762.58;107741;1271;94519;-72
2022/01/02 02:26:48;;;;;;;11.30;5.20;;;;;;;3.31;78.90;100759.65;107787;1271;95060;-71
2022/01/02 02:29:20;;;;;;;7.70;5.00;;;;;;;3.34;78.91;100760.36;107577;1270;138965;-72
2022/01/02 02:31:54;;;;;;;8.30;5.20;;;;;;;3.35;78.86;100754.52;107777;1270;109298;-71
2022/01/02 02:34:27;;;;;;;8.80;5.20;;;;;;;3.36;79.01;100751.08;107567;1270;138196;-72
2022/01/02 02:36:58;;;;;;;10.40;5.50;;;;;;;3.36;79.18;100744.02;107766;1270;95757;-72
2022/01/02 02:39:33;;;;;;;8.10;5.60;;;;;;;3.37;79.25;100747.46;107536;1271;138147;-70
2022/01/02 02:42:14;;;;;;;8.90;5.80;;;;;;;3.35;79.71;100749.02;106196;1270;110203;-71
2022/01/02 02:44:56;;;;;;;8.00;4.90;;;;;;;3.33;79.63;100748.33;106576;1271;109849;-71
2022/01/02 02:50:19;;;;;;;9.10;5.60;;;;;;;3.32;79.91;100748.14;106205;1270;96460;-71
2022/01/02 02:52:51;;;;;;;10.40;5.30;;;;;;;3.31;80.38;100751.06;106109;1270;137750;-71
2022/01/02 02:55:31;;;;;;;10.10;5.30;;;;;;;3.30;80.38;100752.78;107800;1270;110836;-71
2022/01/02 02:58:27;;;;;;;8.70;5.40;;;;;;;3.27;80.29;100746.23;107611;1270;139471;-71
2022/01/02 03:01:33;;;;;;;8.10;5.10;;;;;;;3.28;80.27;100735.23;107738;1260;108770;31
2022/01/02 03:04:06;;;;;;;13.90;5.30;;;;;;;3.31;80.50;100731.13;105298;1277;139643;-70
2022/01/02 03:06:38;;;;;;;11.30;5.40;;;;;;;3.32;80.39;100733.54;105806;1278;96601;-70
2022/01/02 03:09:10;;;;;;;9.10;5.10;;;;;;;3.32;80.66;100727.69;105973;1278;111227;-70
2022/01/02 03:11:44;;;;;;;8.80;5.10;;;;;;;3.31;80.78;100726.48;105735;1278;137965;-70
2022/01/02 03:14:16;;;;;;;7.50;5.20;;;;;;;3.32;80.95;100724.95;105783;1277;107653;-70
2022/01/02 03:16:48;;;;;;;13.20;5.20;;;;;;;3.32;80.67;100726.48;105755;1278;137871;-70
2022/01/02 03:19:21;;;;;;;8.00;4.80;;;;;;;3.30;81.06;100721.33;105876;1277;96455;-70
2022/01/02 03:21:53;;;;;;;9.00;5.70;;;;;;;3.29;81.07;100709.98;105706;1279;141159;-71
2022/01/02 03:24:25;;;;;;;9.00;5.40;;;;;;;3.28;81.43;100701.90;105871;1277;108515;-70
2022/01/02 03:26:57;;;;;;;9.60;6.10;;;;;;;3.27;81.81;100686.60;105816;1278;108950;-70
2022/01/02 03:29:29;;;;;;;10.50;5.90;;;;;;;3.26;82.00;100686.09;105728;1278;138490;-70
2022/01/02 03:32:01;;;;;;;10.20;5.00;;;;;;;3.23;82.03;100681.44;107289;1277;95172;-71
2022/01/02 03:34:33;;;;;;;11.10;6.20;;;;;;;3.23;82.25;100680.39;107247;1277;138785;-71
2022/01/02 03:37:05;;;;;;;12.10;6.30;;;;;;;3.22;82.40;100679.17;107226;1277;107909;-71
2022/01/02 03:39:38;;;;;;;10.20;5.70;;;;;;;3.21;82.58;100669.20;107115;1277;138832;-70
2022/01/02 03:42:11;;;;;;;11.20;6.00;;;;;;;3.20;83.00;100676.41;107249;1277;94852;-71
2022/01/02 03:44:42;;;;;;;11.40;6.70;;;;;;;3.18;83.04;100674.34;107307;1277;94979;-71
2022/01/02 03:47:14;;;;;;;12.90;6.70;;;;;;;3.16;83.00;100660.94;106955;1278;138461;-71
2022/01/02 03:49:47;;;;;;;11.00;6.40;;;;;;;3.17;83.20;100649.09;105916;1278;109135;-71
2022/01/02 03:52:19;;;;;;;10.20;6.70;;;;;;;3.18;82.94;100645.13;105805;1277;138223;-70
2022/01/02 03:54:51;;;;;;;14.30;7.20;;;;;;;3.18;83.25;100644.96;105743;1277;96641;-70
2022/01/02 03:57:23;;;;;;;13.10;7.50;;;;;;;3.19;83.52;100643.42;105848;1277;96499;-70
2022/01/02 03:59:55;;;;;;;12.80;7.20;;;;;;;3.17;83.25;100645.13;107146;1277;137976;-71
2022/01/02 04:02:28;;;;;;;14.00;7.30;;;;;;;3.14;83.86;100637.73;105784;1277;109004;-71
2022/01/02 04:05:00;;;;;;;12.10;6.90;;;;;;;3.13;83.72;100626.73;105621;1281;139123;-71
2022/01/02 04:07:32;;;;;;;13.20;7.30;;;;;;;3.12;84.16;100621.75;105776;1278;96498;-71
2022/01/02 04:10:06;;;;;;;12.80;6.20;;;;;;;3.11;84.22;100624.84;105683;1278;138180;-71
2022/01/02 04:12:39;;;;;;;12.50;7.40;;;;;;;3.08;84.40;100621.73;107071;1277;111101;-72
2022/01/02 04:15:13;;;;;;;12.70;7.30;;;;;;;3.07;84.20;100615.04;105607;1281;109548;-70
2022/01/02 04:17:45;;;;;;;10.20;7.40;;;;;;;3.08;84.37;100609.37;106875;1281;138303;-71
2022/01/02 04:20:18;;;;;;;13.10;7.60;;;;;;;3.09;84.43;100616.94;106790;1281;94783;-71
2022/01/02 04:22:50;;;;;;;15.60;8.00;;;;;;;3.10;84.68;100598.03;106310;1278;138074;-71
2022/01/02 04:25:23;;;;;;;11.40;7.50;;;;;;;3.09;84.46;100592.36;107144;1278;110071;-71
2022/01/02 04:27:55;;;;;;;13.50;7.60;;;;;;;3.10;84.53;100575.19;107059;1277;138709;-72
2022/01/02 04:30:28;;;;;;;12.60;8.00;;;;;;;3.11;84.74;100578.29;106249;1278;110000;-71
2022/01/02 04:33:00;;;;;;;14.20;7.50;;;;;;;3.11;84.75;100570.72;105633;1277;96484;-71
2022/01/02 04:35:32;;;;;;;11.70;7.80;;;;;;;3.11;85.21;100563.67;105711;1277;138853;-70
2022/01/02 04:38:03;;;;;;;9.80;7.40;;;;;;;3.12;84.86;100555.26;105762;1278;110708;-71
2022/01/02 04:40:35;;;;;;;15.40;7.80;;;;;;;3.10;84.83;100543.40;106990;1277;139230;-71
2022/01/02 04:43:09;;;;;;;13.40;7.70;;;;;;;3.10;84.85;100532.92;107069;1279;108933;-71
2022/01/02 04:45:41;;;;;;;15.00;7.90;;;;;;;3.09;85.09;100528.45;107028;1278;139334;-71
2022/01/02 04:48:13;;;;;;;14.30;7.80;;;;;;;3.08;85.43;100516.27;107142;1278;95323;-72
2022/01/02 04:50:46;;;;;;;13.40;7.60;;;;;;;3.08;85.72;100512.48;107229;1277;111070;-71
2022/01/02 04:53:19;;;;;;;12.70;7.70;;;;;;;3.09;85.68;100508.36;106951;1278;138740;-72
2022/01/02 04:55:52;;;;;;;14.70;7.50;;;;;;;3.09;85.76;100519.52;106332;1278;107767;-71
2022/01/02 04:58:24;;;;;;;11.50;7.80;;;;;;;3.10;85.92;100504.40;105699;1278;138240;-71
2022/01/02 05:00:55;;;;;;;13.50;8.00;;;;;;;3.11;85.78;100499.77;105713;1279;96624;-71
2022/01/02 05:03:29;;;;;;;12.40;7.10;;;;;;;3.12;86.03;100496.67;105864;1277;111210;-71
2022/01/02 05:06:00;;;;;;;13.90;7.90;;;;;;;3.13;86.20;100496.67;105616;1279;138327;-71
2022/01/02 05:08:33;;;;;;;12.80;7.70;;;;;;;3.13;86.49;100491.69;105766;1279;109050;-72
2022/01/02 05:11:05;;;;;;;14.00;7.70;;;;;;;3.14;86.47;100495.98;105705;1278;138204;-71
2022/01/02 05:13:37;;;;;;;13.00;7.50;;;;;;;3.14;86.30;100492.89;105823;1278;96557;-72
2022/01/02 05:16:09;;;;;;;12.30;7.60;;;;;;;3.15;86.48;100495.81;105528;1278;138082;-72
2022/01/02 05:18:41;;;;;;;15.50;7.90;;;;;;;3.17;86.68;100504.75;105720;1277;109017;-71
2022/01/02 05:21:14;;;;;;;14.30;7.80;;;;;;;3.18;86.94;100498.91;105777;1278;108592;-72
2022/01/02 05:23:47;;;;;;;14.70;8.40;;;;;;;3.20;87.09;100496.84;105674;1278;138133;-71
2022/01/02 05:26:19;;;;;;;16.50;8.30;;;;;;;3.22;86.69;100491.52;105771;1279;96406;-71
2022/01/02 05:28:51;;;;;;;15.30;7.90;;;;;;;3.24;86.84;100487.95;105614;1277;138528;-71
2022/01/02 05:31:23;;;;;;;14.30;8.70;;;;;;;3.24;86.92;100473.34;105845;1279;107906;-71
2022/01/02 05:33:57;;;;;;;13.70;7.70;;;;;;;3.24;87.01;100467.15;105867;1278;138417;-72
2022/01/02 05:36:30;;;;;;;15.60;8.20;;;;;;;3.25;87.22;100454.61;105719;1278;96538;-72
2022/01/02 05:39:03;;;;;;;16.60;8.20;;;;;;;3.26;87.21;100452.89;105704;1277;96531;-71
2022/01/02 05:41:36;;;;;;;14.10;8.90;;;;;;;3.26;87.42;100456.50;105707;1278;138039;-71
2022/01/02 05:44:08;;;;;;;13.80;8.80;;;;;;;3.26;87.36;100444.13;105825;1278;108702;-71
2022/01/02 05:46:41;;;;;;;15.60;8.90;;;;;;;3.26;87.65;100442.75;105615;1279;138328;-71
2022/01/02 05:49:14;;;;;;;16.30;9.90;;;;;;;3.27;87.97;100436.73;105725;1279;96501;-72
2022/01/02 05:51:46;;;;;;;16.50;10.00;;;;;;;3.26;88.28;100432.44;105638;1279;140133;-71
2022/01/02 05:54:18;;;;;;;16.90;10.30;;;;;;;3.25;88.67;100428.14;105849;1278;110514;-71
2022/01/02 05:56:51;;;;;;;18.40;11.00;;;;;;;3.25;88.50;100396.34;105798;1278;108717;-72
2022/01/02 05:59:24;;;;;;;22.10;11.30;;;;;;;3.25;88.72;100390.51;105680;1278;138512;-71
2022/01/02 06:01:58;;;;;;;17.70;11.60;;;;;;;3.24;88.82;100397.23;107065;1279;94858;-72
2022/01/02 06:04:30;;;;;;;20.40;12.00;;;;;;;3.24;89.34;100394.46;106944;1279;138168;-72
2022/01/02 06:07:04;;;;;;;20.20;13.30;;;;;;;3.23;89.62;100395.30;107196;1278;111576;-73
2022/01/02 06:09:35;;;;;;;23.10;13.70;;;;;;;3.21;89.81;100405.27;107126;1278;110384;-73
2022/01/02 06:12:09;;;;;;;23.80;14.00;;;;;;;3.20;89.92;100396.16;106991;1278;138655;-72
2022/01/02 06:14:41;;;;;;;20.30;12.60;;;;;;;3.20;89.96;100396.15;105817;1278;96525;-72
2022/01/02 06:17:12;;;;;;;21.80;13.10;;;;;;;3.21;90.08;100394.95;105505;1278;139149;-72
2022/01/02 06:19:44;;;;;;;23.00;12.50;;;;;;;3.23;90.54;100389.63;105641;1277;112263;-72
2022/01/02 06:22:16;;;;;;;22.50;12.70;;;;;;;3.26;90.58;100380.20;105505;1278;138874;-73
2022/01/02 06:24:48;;;;;;;21.80;13.20;;;;;;;3.28;91.10;100379.67;105645;1278;107551;-72
2022/01/02 06:27:20;;;;;;;21.50;13.00;;;;;;;3.31;91.08;100382.25;105596;1278;96602;-73
2022/01/02 06:29:53;;;;;;;22.10;12.80;;;;;;;3.33;90.85;100385.67;107091;1279;140036;-72
2022/01/02 06:32:26;;;;;;;22.50;13.90;;;;;;;3.35;90.93;100377.25;107111;1278;109630;-72
2022/01/02 06:34:58;;;;;;;22.70;13.20;;;;;;;3.38;91.03;100375.52;107027;1278;139705;-72
2022/01/02 06:37:30;;;;;;;20.60;12.60;;;;;;;3.39;91.25;100354.05;106554;1279;107684;-72
2022/01/02 06:40:01;;;;;;;20.40;12.80;;;;;;;3.42;91.20;100356.81;105481;1279;138551;-72
2022/01/02 06:42:33;;;;;;;21.30;12.90;;;;;;;3.43;90.77;100342.89;105523;1279;96394;-72
2022/01/02 06:45:06;;;;;;;21.70;12.70;;;;;;;3.46;90.67;100339.44;105690;1279;111431;-72
2022/01/02 06:47:38;;;;;;;24.10;14.60;;;;;;;3.48;91.34;100340.64;107015;1277;138564;-72
2022/01/02 06:50:12;;;;;;;23.20;13.50;;;;;;;3.48;91.12;100336.52;105982;1278;108688;-72
2022/01/02 06:52:45;;;;;;;24.00;13.60;;;;;;;3.50;91.23;100339.08;105450;1278;139151;-72
2022/01/02 06:55:16;;;;;;;22.90;13.40;;;;;;;3.50;91.60;100322.92;105751;1277;96445;-71
2022/01/02 06:57:48;;;;;;;23.30;13.10;;;;;;;3.52;91.56;100326.70;105796;1279;138641;-71
2022/01/02 07:00:21;;;;;;;27.60;13.40;;;;;;;3.53;91.84;100319.13;105873;1279;108298;-72
2022/01/02 07:02:53;;;;;;;26.60;13.80;;;;;;;3.53;92.16;100319.98;106728;1278;108649;-72
2022/01/02 07:05:26;;;;;;;27.10;14.10;;;;;;;3.55;92.41;100321.02;106996;1278;139335;-72
2022/01/02 07:07:58;;;;;;;22.30;13.80;;;;;;;3.57;92.21;100317.05;106975;1278;94638;-72
2022/01/02 07:10:30;;;;;;;23.80;13.60;;;;;;;3.58;92.29;100314.81;106811;1278;139401;-72
2022/01/02 07:13:02;;;;;;;28.30;14.20;;;;;;;3.60;92.32;100310.52;106903;1278;107987;-71
2022/01/02 07:15:34;;;;;;;26.70;15.10;;;;;;;3.62;92.19;100319.63;107028;1277;108904;-72
2022/01/02 07:18:05;;;;;;;25.80;13.90;;;;;;;3.66;92.25;100322.37;106504;1277;140065;-72
2022/01/02 07:20:37;;;;;;;24.80;13.90;;;;;;;3.70;92.11;100316.16;106512;1277;96497;-71
2022/01/02 07:23:09;;;;;;;28.20;14.70;;;;;;;3.74;92.40;100309.61;107077;1279;138387;-72
2022/01/02 07:25:41;;;;;;;24.10;13.80;;;;;;;3.77;92.26;100308.23;106167;1278;108021;-72
2022/01/02 07:28:13;;;;;;;26.30;14.10;;;;;;;3.81;92.49;100303.92;105663;1278;138526;-71
2022/01/02 07:30:46;;;;;;;27.00;14.20;;;;;;;3.83;92.27;100294.29;105612;1278;96517;-72
2022/01/02 07:33:18;;;;;;;31.40;15.10;;;;;;;3.85;92.22;100291.17;106064;1277;97313;-71
2022/01/02 07:35:49;;;;;;;29.80;14.10;;;;;;;3.86;92.69;100285.50;107044;1278;138545;-71
2022/01/02 07:38:35;;;;;;;27.80;15.10;;;;;;;3.89;92.34;100287.88;107127;1278;108277;-72
2022/01/02 07:41:06;;;;;;;31.00;16.10;;;;;;;3.92;92.57;100274.96;107153;1279;138358;-71
2022/01/02 07:43:38;;;;;;;32.30;15.10;;;;;;;3.96;92.76;100258.79;107200;1277;94903;-71
2022/01/02 07:46:10;;;;;;;31.60;16.20;;;;;;;4.00;92.75;100262.38;107125;1279;140608;-71
2022/01/02 07:48:42;;;;;;;28.40;14.50;;;;;;;4.01;92.98;100262.38;107197;1278;111786;-71
2022/01/02 07:51:14;;;;;;;35.70;15.80;;;;;;;4.04;92.77;100252.73;107217;1278;108909;-71
2022/01/02 07:53:46;;;;;;;30.50;16.30;;;;;;;4.07;92.41;100249.26;107153;1278;138913;-72
2022/01/02 07:56:18;;;;;;;31.30;15.90;;;;;;;4.10;92.45;100235.64;107160;1277;95814;-71
2022/01/02 07:58:49;;;;;;;32.80;16.70;;;;;;;4.15;92.73;100221.17;107093;1277;140196;-72
2022/01/02 08:01:22;;;;;;;37.50;16.00;;;;;;;4.19;92.71;100223.20;106083;1278;111210;-71
2022/01/02 08:03:55;;;;;;;33.00;16.50;;;;;;;4.23;92.70;100220.77;106016;1278;138949;-71
2022/01/02 08:06:27;;;;;;;31.60;16.90;;;;;;;4.25;92.53;100206.64;106828;1279;108467;-71
2022/01/02 08:08:59;;;;;;;34.60;16.70;;;;;;;4.30;92.73;100204.88;106603;1278;96508;-73
2022/01/02 08:11:31;;;;;;;33.20;16.60;;;;;;;4.34;93.11;100204.02;105883;1278;140018;-71
2022/01/02 08:14:19;;;;;;;36.50;17.10;;;;;;;4.37;93.22;100196.58;106994;1278;111336;-71
2022/01/02 08:16:51;;;;;;;31.80;16.40;;;;;;;4.40;93.31;100193.61;106977;1277;138569;-70
2022/01/02 08:19:23;;;;;;;37.10;17.50;;;;;;;4.45;93.38;100193.23;106201;1277;108853;-71
2022/01/02 08:21:55;;;;;;;35.80;17.30;;;;;;;4.49;93.17;100197.67;105523;1278;138702;-70
2022/01/02 08:24:27;;;;;;;32.60;16.60;;;;;;;4.52;93.27;100193.19;106792;1278;96423;-71
2022/01/02 08:26:59;;;;;;;37.10;17.90;;;;;;;4.59;93.21;100191.74;107082;1278;111373;-71
2022/01/02 08:29:31;;;;;;;34.00;17.60;;;;;;;4.64;93.14;100189.45;106832;1277;139552;-70
2022/01/02 08:32:04;;;;;;;38.10;18.00;;;;;;;4.69;93.04;100199.41;105829;1278;109025;-70
2022/01/02 08:34:35;;;;;;;34.30;17.80;;;;;;;4.74;92.96;100206.77;107048;1277;139470;-70
2022/01/02 08:37:07;;;;;;;33.50;17.80;;;;;;;4.79;92.90;100199.65;106180;1278;96509;-72
2022/01/02 08:39:39;;;;;;;31.60;17.30;;;;;;;4.85;93.35;100182.89;106381;1278;109931;-71
2022/01/02 08:42:12;;;;;;;31.70;17.20;;;;;;;4.91;93.39;100180.60;105733;1278;138460;-71
2022/01/02 08:44:44;;;;;;;33.30;17.50;;;;;;;4.97;93.35;100181.04;106895;1278;108870;-71
2022/01/02 08:47:16;;;;;;;31.20;17.00;;;;;;;5.04;93.26;100179.08;107059;1276;139924;-72
2022/01/02 08:49:48;;;;;;;35.20;17.80;;;;;;;5.11;93.34;100191.40;107133;1278;94869;-72
2022/01/02 08:52:20;;;;;;;34.50;16.70;;;;;;;5.16;92.98;100184.79;107178;1278;139123;-72
2022/01/02 08:54:52;;;;;;;31.30;16.80;;;;;;;5.22;93.08;100172.33;107287;1278;109033;-72
2022/01/02 08:57:24;;;;;;;31.50;16.60;;;;;;;5.30;93.26;100174.80;107238;1278;107785;-72
2022/01/02 08:59:56;;;;;;;32.10;16.40;;;;;;;5.36;92.69;100171.97;106898;1277;138540;-72
2022/01/02 09:02:27;;;;;;;35.50;18.30;;;;;;;5.40;92.93;100167.10;105753;1279;96514;-71
2022/01/02 09:04:59;;;;;;;31.60;17.70;;;;;;;5.49;92.98;100169.58;105631;1279;138652;-71
2022/01/02 09:07:31;;;;;;;34.50;18.30;;;;;;;5.55;93.02;100151.22;105746;1278;109077;-72
2022/01/02 09:10:04;;;;;;;33.40;17.80;;;;;;;5.60;93.15;100136.51;105649;1279;138715;-71
2022/01/02 09:12:36;;;;;;;35.00;18.00;;;;;;;5.66;92.99;100123.13;105734;1279;96514;-72
2022/01/02 09:15:08;;;;;;;38.30;18.60;;;;;;;5.71;93.20;100120.45;105738;1279;96536;-71
2022/01/02 09:17:40;;;;;;;34.50;18.30;;;;;;;5.76;93.01;100111.27;105649;1279;138175;-71
2022/01/02 09:20:12;;;;;;;31.30;17.20;;;;;;;5.78;93.05;100106.40;105724;1279;108869;-71
2022/01/02 09:22:46;;;;;;;28.70;16.40;;;;;;;5.79;93.08;100103.27;105617;1276;139685;-71
2022/01/02 09:25:18;;;;;;;31.80;16.40;;;;;;;5.81;93.23;100100.84;105920;1279;96500;-71
2022/01/02 09:27:50;;;;;;;30.10;17.20;;;;;;;5.86;93.27;100101.96;105773;1279;138571;-70
2022/01/02 09:30:22;;;;;;;33.10;16.60;;;;;;;5.90;93.14;100096.73;105894;1278;111056;-71
2022/01/02 09:32:55;;;;;;;29.50;16.00;;;;;;;5.94;93.29;100087.20;105913;1278;107760;-70
2022/01/02 09:35:27;;;;;;;28.00;16.20;;;;;;;5.99;93.62;100081.42;105829;1279;138531;-70
2022/01/02 09:37:58;;;;;;;31.30;16.50;;;;;;;6.03;93.75;100073.41;106937;1278;95583;-70
2022/01/02 09:40:33;;;;;;;30.70;17.60;;;;;;;6.08;93.56;100066.77;107143;1277;139848;-71
2022/01/02 09:43:05;;;;;;;29.60;15.80;;;;;;;6.11;93.49;100063.29;105757;1279;110693;-70
2022/01/02 09:45:38;;;;;;;31.00;17.00;;;;;;;6.15;93.51;100065.98;105896;1278;108749;-70
2022/01/02 09:48:11;;;;;;;30.90;17.20;;;;;;;6.19;93.79;100058.13;106071;1278;138268;-71
2022/01/02 09:50:43;;;;;;;28.80;15.30;;;;;;;6.24;93.75;100040.23;105889;1277;96610;-71
2022/01/02 09:53:15;;;;;;;30.30;16.10;;;;;;;6.29;93.75;100041.38;105753;1279;138453;-70
2022/01/02 09:55:47;;;;;;;30.10;16.10;;;;;;;6.32;93.57;100029.09;105903;1279;111655;-71
2022/01/02 09:58:19;;;;;;;29.20;16.40;;;;;;;6.36;93.65;100016.56;105692;1278;138651;-72
2022/01/02 10:00:53;;;;;;;30.10;15.70;;;;;;;6.40;93.58;99996.80;105785;1278;109273;-71
2022/01/02 10:03:25;;;;;;;29.10;15.90;;;;;;;6.44;93.60;99988.94;106005;1278;96841;-71
2022/01/02 10:05:59;;;;;;;26.10;15.40;;;;;;;6.48;93.70;99990.77;105751;1278;138017;-70
2022/01/02 10:08:34;;;;;;;30.00;16.40;;;;;;;6.54;93.57;99977.19;105852;1279;111245;-71
2022/01/02 10:11:11;;;;;;;28.60;16.10;;;;;;;6.58;93.70;99962.75;106137;1278;139861;-71
2022/01/02 10:13:46;;;;;;;29.80;16.60;;;;;;;6.62;93.63;99943.84;105838;1279;108227;-72
2022/01/02 10:16:25;;;;;;;30.90;17.00;;;;;;;6.64;93.77;99938.80;106990;1278;140561;-72
2022/01/02 10:18:59;;;;;;;27.90;16.20;;;;;;;6.67;93.47;99934.42;106093;1278;96411;-70
2022/01/02 10:21:33;;;;;;;30.70;17.20;;;;;;;6.69;93.64;99922.13;105766;1278;111398;-72
2022/01/02 10:24:17;;;;;;;28.20;16.20;;;;;;;6.70;93.84;99907.75;105433;1278;138066;-72
2022/01/02 10:27:13;;;;;;;27.40;16.20;;;;;;;6.72;93.82;99889.56;105847;1279;109164;-70
2022/01/02 10:29:51;;;;;;;29.50;17.90;;;;;;;6.73;93.59;99878.48;105772;1279;138344;-70
2022/01/02 10:32:31;;;;;;;33.60;18.70;;;;;;;6.76;93.70;99882.74;107261;1278;94497;-71
2022/01/02 10:35:16;;;;;;;31.50;17.60;;;;;;;6.81;93.82;99890.22;107109;1278;137943;-71
2022/01/02 10:37:53;;;;;;;32.20;17.80;;;;;;;6.83;93.47;99888.98;105801;1279;109242;-71
2022/01/02 10:40:30;;;;;;;31.40;18.00;;;;;;;6.87;93.61;99895.61;105529;1278;138769;-71
2022/01/02 10:43:04;;;;;;;33.00;18.10;;;;;;;6.91;93.43;99895.52;105710;1278;96512;-69
2022/01/02 10:45:39;;;;;;;29.80;17.00;;;;;;;6.94;93.28;99892.33;105885;1278;96528;-70
2022/01/02 10:48:13;;;;;;;30.80;18.00;;;;;;;6.98;93.17;99870.64;107151;1278;138641;-70
2022/01/02 10:51:02;;;;;;;36.60;18.90;;;;;;;7.05;93.15;99865.98;105840;1278;108906;-71
2022/01/02 10:53:35;;;;;;;32.30;19.20;;;;;;;7.12;93.24;99870.84;105749;1279;138531;-71
2022/01/02 10:56:08;;;;;;;32.90;18.70;;;;;;;7.19;92.97;99855.80;105772;1278;96459;-71
2022/01/02 10:58:41;;;;;;;30.60;18.10;;;;;;;7.25;92.82;99843.36;105563;1278;139087;-71
2022/01/02 11:01:13;;;;;;;34.30;20.00;;;;;;;7.29;92.73;99851.05;105737;1279;111116;-71
2022/01/02 11:03:47;;;;;;;32.80;19.10;;;;;;;7.33;92.66;99826.20;105697;1278;109098;-70
2022/01/02 11:06:29;;;;;;;32.20;18.90;;;;;;;7.36;92.53;99830.45;105728;1278;138204;-70
2022/01/02 11:09:01;;;;;;;33.30;20.00;;;;;;;7.39;92.35;99830.41;105834;1279;96523;-70
2022/01/02 11:11:35;;;;;;;32.30;19.50;;;;;;;7.40;92.18;99822.76;105797;1278;138234;-70
2022/01/02 11:14:06;;;;;;;35.70;20.40;;;;;;;7.43;92.12;99812.13;105927;1278;112133;-70
2022/01/02 11:16:39;;;;;;;35.10;19.60;;;;;;;7.45;92.12;99801.67;105760;1278;138605;-70
2022/01/02 11:19:12;;;;;;;34.40;19.30;;;;;;;7.48;92.03;99796.23;106152;1278;109067;-70
2022/01/02 11:21:50;;;;;;;33.60;19.60;;;;;;;7.51;92.01;99794.23;105837;1279;96547;-69
2022/01/02 11:24:24;;;;;;;;;;;;;;;7.54;91.94;99801.27;105766;1279;139075;-68
2022/01/02 11:27:02;;;;;;;31.70;19.70;;;;;;;7.57;91.84;99795.84;107219;1278;111077;-71
2022/01/02 11:29:34;;;;;;;33.60;19.90;;;;;;;7.61;91.90;99772.71;107168;1278;138773;-71
2022/01/02 11:32:22;;;;;;;33.40;19.50;;;;;;;7.65;91.81;99769.30;107200;1278;108924;-70
2022/01/02 11:34:56;;;;;;;33.50;19.90;;;;;;;7.72;91.58;99760.30;107107;1278;138650;-72
2022/01/02 11:37:31;;;;;;;31.70;19.00;;;;;;;7.77;91.34;99758.23;106939;1279;95062;-71
2022/01/02 11:40:06;;;;;;;30.60;18.40;;;;;;;7.83;91.23;99745.24;106891;1278;140268;-71
2022/01/02 11:42:48;;;;;;;31.60;17.30;;;;;;;7.90;91.05;99749.20;106637;1278;109380;-71
2022/01/02 11:45:44;;;;;;;33.10;18.70;;;;;;;7.98;90.92;99756.94;105811;1278;108998;-72